METAR Data
IDs: Format: Raw Decoded Include TAF

Data at: 2107 UTC 24 Mar 2019

KTRL 242053Z AUTO 18011KT 10SM BKN036 25/17 A3000 RMK AO2 SLP155 T02500167 56015
KTRL 241953Z AUTO 19010KT 10SM BKN035 24/16 A3001 RMK AO2 SLP157 T02440161
KTRL 241853Z AUTO 20011KT 10SM SCT029 OVC034 24/16 A3004 RMK AO2 SLP166 T02390161
KTRL 241833Z AUTO 20014KT 10SM FEW027 OVC032 23/16 A3004 RMK AO2 T02330161
KTRL 241826Z AUTO 21011KT 10SM BKN029 OVC034 24/16 A3005 RMK AO2 T02390161
KTRL 241753Z AUTO 21011G19KT 10SM OVC030 23/16 A3005 RMK AO2 SLP171 T02330156 10239 20167 56006
KTRL 241653Z AUTO 20014G21KT 10SM BKN025 23/16 A3006 RMK AO2 SLP175 T02280161
KTRL 241608Z AUTO 21013G21KT 10SM BKN022 22/16 A3007 RMK AO2 T02220161
KTRL 241553Z AUTO 22012G20KT 10SM FEW020 22/16 A3007 RMK AO2 SLP177 T02220161
KTRL 241520Z AUTO 21013KT 10SM SCT015 21/16 A3007 RMK AO2 T02110156
KTRL 241453Z AUTO 21009KT 10SM OVC013 20/16 A3008 RMK AO2 SLP180 T02000161 53008
KTRL 241353Z AUTO 19009KT 9SM BKN013 OVC033 18/15 A3007 RMK AO2 SLP177 T01780150
KTRL 241344Z AUTO 19009KT 9SM BKN013 BKN033 18/15 A3006 RMK AO2 T01780150
KTRL 241253Z AUTO 18008KT 9SM OVC032 17/14 A3006 RMK AO2 SLP173 T01720144
KTRL 241235Z AUTO 16006KT 9SM SCT013 BKN031 17/14 A3005 RMK AO2 T01720144
KTRL 241153Z AUTO 19005KT 10SM OVC014 17/14 A3005 RMK AO2 SLP171 T01720144 10183 20172 53005
KTRL 241140Z AUTO 19008KT 10SM OVC014 17/14 A3005 RMK AO2 T01720144
KTRL 241053Z AUTO 18007KT 10SM OVC017 17/14 A3004 RMK AO2 SLP167 T01720144
KTRL 240953Z AUTO 18009KT 10SM OVC017 17/14 A3004 RMK AO2 SLP166 T01720139
KTRL 240932Z AUTO 19007KT 10SM BKN016 OVC037 17/14 A3004 RMK AO2 T01720139
KTRL 240853Z AUTO 18011KT 10SM FEW021 OVC037 17/14 A3004 RMK AO2 SLP166 T01720139 58004
KTRL 240753Z AUTO 18010KT 10SM OVC033 18/14 A3005 RMK AO2 SLP171 T01780139
KTRL 240653Z AUTO 18011KT 10SM CLR 18/13 A3006 RMK AO2 SLP173 T01780133
KTRL 240553Z AUTO 17010KT 10SM CLR 18/13 A3005 RMK AO2 SLP171 60000 T01830133 10222 20183 402330133 53007
KTRL 240453Z AUTO 18012KT 10SM CLR 18/13 A3004 RMK AO2 SLP168 T01830133
KTRL 240353Z AUTO 17013KT 10SM FEW046 19/13 A3003 RMK AO2 SLP165 T01940133
KTRL 240253Z AUTO 16009KT 10SM OVC046 20/12 A3003 RMK AO2 SLP164 60000 T02000122 53004
KTRL 240153Z AUTO 16010KT 10SM OVC041 20/13 A3001 RMK AO2 SLP158 T02000128
KTRL 240053Z AUTO 17011KT 10SM OVC043 21/13 A3002 RMK AO2 RAB13E34 SLP160 P0000 T02060133
KTRL 232353Z AUTO 19014KT 10SM OVC042 22/13 A3002 RMK AO2 SLP160 T02220128 10233 20217 53002
KTRL 232253Z AUTO 18009G17KT 10SM OVC044 22/13 A3000 RMK AO2 SLP154 T02220133
KTRL 232153Z AUTO 18012KT 10SM OVC045 22/13 A3000 RMK AO2 SLP154 T02220133
KTRL 232053Z AUTO 18015G22KT 10SM FEW033 OVC060 22/14 A3001 RMK AO2 SLP157 T02220139 56026
KTRL 231953Z AUTO 19013G22KT 10SM OVC060 22/13 A3003 RMK AO2 SLP165 T02220133
KTRL 231853Z AUTO 18019G25KT 10SM SCT065 BKN080 BKN095 22/13 A3006 RMK AO2 PK WND 19026/1823 SLP175 T02220133
KTRL 231811Z AUTO 17018G24KT 10SM SCT027 SCT110 22/13 A3008 RMK AO2 T02170133
KTRL 231753Z AUTO 17014KT 10SM BKN027 BKN065 21/13 A3009 RMK AO2 SLP184 T02110133 10222 20133 57007
KTRL 231653Z AUTO 17013KT 10SM SCT075 21/13 A3010 RMK AO2 SLP187 T02060128
KTRL 231553Z AUTO 17014KT 10SM CLR 19/12 A3010 RMK AO2 SLP189 T01890122
KTRL 231453Z AUTO 16010KT 10SM SCT060 17/12 A3011 RMK AO2 SLP192 T01670117 51017
KTRL 231353Z AUTO 15006KT 10SM FEW070 15/09 A3010 RMK AO2 SLP190 T01500094
KTRL 231253Z AUTO 13005KT 10SM FEW120 14/09 A3009 RMK AO2 SLP186 T01440089
KTRL 231153Z AUTO 17004KT 10SM CLR 14/09 A3006 RMK AO2 RAB1054E18 SLP175 P0000 60000 T01440094 10183 20144 55000
KTRL 231053Z AUTO 22006KT 10SM FEW060 BKN100 OVC120 16/08 A3005 RMK AO2 RAB07E46 SLP172 P0000 T01610078
KTRL 230953Z AUTO 15009KT 10SM CLR 17/07 A3004 RMK AO2 SLP167 T01670072